createdAt,value
2022-11-17T00:00:45.516Z,98254.03
2022-11-17T00:03:19.833Z,98249.81
2022-11-17T00:05:52.347Z,98246.31
2022-11-17T00:08:19.363Z,98250.34
2022-11-17T00:10:46.588Z,98246.09
2022-11-17T00:13:32.395Z,98249.28
2022-11-17T00:15:59.904Z,98231.44
2022-11-17T00:18:45.758Z,98232.00
2022-11-17T00:21:19.917Z,98232.00
2022-11-17T00:23:47.794Z,98221.50
2022-11-17T00:26:26.850Z,98229.03
2022-11-17T00:28:55.360Z,98227.97
2022-11-17T00:31:42.189Z,98228.50
2022-11-17T00:34:14.221Z,98233.81
2022-11-17T00:36:47.379Z,98235.09
2022-11-17T00:39:18.009Z,98238.59
2022-11-17T00:41:45.394Z,98252.97
2022-11-17T00:44:12.508Z,98248.31
2022-11-17T00:46:40.546Z,98246.31
2022-11-17T00:49:09.067Z,98236.59
2022-11-17T00:51:38.115Z,98225.75
2022-11-17T00:54:06.355Z,98230.91
2022-11-17T00:56:33.921Z,98227.22
2022-11-17T00:59:04.056Z,98229.03
2022-11-17T01:01:31.622Z,98231.06
2022-11-17T01:04:05.417Z,98221.31
2022-11-17T01:06:36.247Z,98227.16
2022-11-17T01:09:15.610Z,98229.38
2022-11-17T01:11:44.167Z,98222.72
2022-11-17T01:14:17.387Z,98217.00
2022-11-17T01:16:45.536Z,98218.13
2022-11-17T01:19:16.913Z,98224.41
2022-11-17T01:21:44.324Z,98217.53
2022-11-17T01:24:12.844Z,98209.06
2022-11-17T01:26:42.198Z,98212.91
2022-11-17T01:29:12.233Z,98205.72
2022-11-17T01:31:43.402Z,98199.25
2022-11-17T01:34:10.915Z,98187.28
2022-11-17T01:37:01.873Z,98193.66
2022-11-17T01:39:30.393Z,98185.94
2022-11-17T01:42:02.225Z,98193.13
2022-11-17T01:44:50.295Z,98192.78
2022-11-17T01:47:20.661Z,98188.34
2022-11-17T01:49:51.603Z,98185.94
2022-11-17T01:52:24.801Z,98179.84
2022-11-17T01:54:54.170Z,98185.25
2022-11-17T01:57:29.524Z,98186.53
2022-11-17T02:00:03.927Z,98189.09
2022-11-17T02:02:33.498Z,98196.50
2022-11-17T02:05:24.147Z,98184.69
2022-11-17T02:07:54.789Z,98187.44
2022-11-17T02:10:22.018Z,98180.47
2022-11-17T02:12:49.690Z,98168.84
2022-11-17T02:15:16.845Z,98169.09
2022-11-17T02:17:49.694Z,98164.22
2022-11-17T02:20:38.133Z,98160.84
2022-11-17T02:23:43.174Z,98152.38
2022-11-17T02:26:29.086Z,98158.75
2022-11-17T02:29:05.756Z,98155.78
2022-11-17T02:31:43.840Z,98155.78
2022-11-17T02:34:34.632Z,98145.53
2022-11-17T02:37:07.818Z,98150.50
2022-11-17T02:40:01.449Z,98154.63
2022-11-17T02:43:03.540Z,98162.56
2022-11-17T02:45:39.354Z,98167.06
2022-11-17T02:48:16.484Z,98156.56
2022-11-17T02:50:48.868Z,98162.28
2022-11-17T02:53:16.550Z,98152.97
2022-11-17T02:55:52.429Z,98160.34
2022-11-17T02:58:20.157Z,98167.75
2022-11-17T03:01:19.753Z,98155.66
2022-11-17T03:04:05.200Z,98146.34
2022-11-17T03:06:54.232Z,98153.00
2022-11-17T03:09:44.749Z,98152.44
2022-11-17T03:12:33.906Z,98147.38
2022-11-17T03:15:24.381Z,98138.22
2022-11-17T03:18:07.739Z,98139.31
2022-11-17T03:20:46.225Z,98140.25
2022-11-17T03:23:25.760Z,98143.75
2022-11-17T03:25:58.037Z,98157.94
2022-11-17T03:28:29.829Z,98158.13
2022-11-17T03:31:01.220Z,98149.88
2022-11-17T03:33:29.836Z,98151.13
2022-11-17T03:36:09.291Z,98145.81
2022-11-17T03:38:41.318Z,98141.59
2022-11-17T03:41:13.541Z,98143.63
2022-11-17T03:43:43.196Z,98139.41
2022-11-17T03:46:15.775Z,98142.88
2022-11-17T03:48:53.705Z,98153.69
2022-11-17T03:51:27.417Z,98147.44
2022-11-17T03:53:55.337Z,98146.69
2022-11-17T03:56:25.411Z,98148.16
2022-11-17T03:59:04.298Z,98144.38
2022-11-17T04:01:33.647Z,98143.41
2022-11-17T04:04:01.020Z,98138.97
2022-11-17T04:06:28.065Z,98139.72
2022-11-17T04:08:55.427Z,98138.44
2022-11-17T04:11:41.071Z,98143.94
2022-11-17T04:14:27.665Z,98139.72
2022-11-17T04:16:56.736Z,98156.44
2022-11-17T04:19:24.016Z,98156.63
2022-11-17T04:21:51.006Z,98155.16
2022-11-17T04:24:18.567Z,98163.44
2022-11-17T04:27:04.083Z,98160.88
2022-11-17T04:29:31.443Z,98169.88
2022-11-17T04:31:58.556Z,98169.16
2022-11-17T04:34:25.966Z,98169.88
2022-11-17T04:36:52.982Z,98166.06
2022-11-17T04:39:20.335Z,98167.31
2022-11-17T04:42:03.396Z,98169.88
2022-11-17T04:44:32.580Z,98170.94
2022-11-17T04:47:02.075Z,98173.91
2022-11-17T04:49:31.839Z,98164.91
2022-11-17T04:51:58.928Z,98170.94
2022-11-17T04:54:26.227Z,98168.72
2022-11-17T04:56:54.652Z,98178.13
2022-11-17T04:59:22.373Z,98182.38
2022-11-17T05:01:50.181Z,98179.94
2022-11-17T05:04:39.785Z,98181.97
2022-11-17T05:07:08.490Z,98180.38
2022-11-17T05:09:36.260Z,98178.13
2022-11-17T05:12:21.833Z,98182.38
2022-11-17T05:14:52.483Z,98169.88
2022-11-17T05:17:19.641Z,98169.16
2022-11-17T05:19:48.382Z,98160.13
2022-11-17T05:22:42.060Z,98157.94
2022-11-17T05:25:09.834Z,98165.84
2022-11-17T05:27:37.808Z,98157.94
2022-11-17T05:30:07.311Z,98155.91
2022-11-17T05:32:34.381Z,98156.03
2022-11-17T05:35:01.799Z,98152.53
2022-11-17T05:37:31.052Z,98142.28
2022-11-17T05:39:58.400Z,98145.91
2022-11-17T05:42:25.484Z,98151.41
2022-11-17T05:44:52.880Z,98152.78
2022-11-17T05:47:19.869Z,98150.03
2022-11-17T05:49:49.392Z,98153.13
2022-11-17T05:52:16.441Z,98154.72
2022-11-17T05:54:43.706Z,98153.78
2022-11-17T05:57:17.377Z,98162.88
2022-11-17T05:59:54.980Z,98161.44
2022-11-17T06:02:27.732Z,98154.44
2022-11-17T06:04:54.990Z,98155.50
2022-11-17T06:07:22.637Z,98161.97
2022-11-17T06:09:52.411Z,98159.22
2022-11-17T06:12:19.684Z,98159.75
2022-11-17T06:14:48.982Z,98153.16
2022-11-17T06:17:28.826Z,98156.47
2022-11-17T06:20:08.631Z,98166.50
2022-11-17T06:22:36.642Z,98161.75
2022-11-17T06:25:05.245Z,98178.81
2022-11-17T06:27:36.406Z,98170.53
2022-11-17T06:30:05.493Z,98160.91
2022-11-17T06:32:38.141Z,98161.34
2022-11-17T06:35:07.575Z,98160.41
2022-11-17T06:37:34.936Z,98164.41
2022-11-17T06:40:02.015Z,98163.25
2022-11-17T06:42:47.981Z,98171.72
2022-11-17T06:45:17.480Z,98167.69
2022-11-17T06:47:44.715Z,98169.50
2022-11-17T06:50:11.785Z,98162.72
2022-11-17T06:52:39.275Z,98160.19
2022-11-17T06:55:08.807Z,98155.28
2022-11-17T06:57:36.101Z,98152.97
2022-11-17T07:00:06.115Z,98146.38
2022-11-17T07:02:33.665Z,98152.31
2022-11-17T07:05:03.449Z,98145.50
2022-11-17T07:07:33.514Z,98154.94
2022-11-17T07:10:00.600Z,98162.88
2022-11-17T07:12:28.073Z,98162.22
2022-11-17T07:14:55.015Z,98166.63
2022-11-17T07:17:22.299Z,98173.28
2022-11-17T07:19:49.266Z,98170.81
2022-11-17T07:22:16.547Z,98173.44
2022-11-17T07:24:43.637Z,98166.31
2022-11-17T07:27:11.196Z,98172.44
2022-11-17T07:29:41.600Z,98166.06
2022-11-17T07:32:12.065Z,98174.78
2022-11-17T07:34:39.023Z,98181.78
2022-11-17T07:37:07.461Z,98170.50
2022-11-17T07:39:34.498Z,98175.25
2022-11-17T07:42:04.127Z,98184.72
2022-11-17T07:44:31.118Z,98177.28
2022-11-17T07:46:58.604Z,98188.44
2022-11-17T07:49:27.047Z,98187.00
2022-11-17T07:51:54.545Z,98188.16
2022-11-17T07:54:21.566Z,98179.97
2022-11-17T07:56:48.908Z,98179.25
2022-11-17T07:59:21.018Z,98175.59
2022-11-17T08:01:48.759Z,98185.91
2022-11-17T08:04:18.092Z,98183.41
2022-11-17T08:06:45.415Z,98190.69
2022-11-17T08:09:15.889Z,98194.19
2022-11-17T08:11:43.219Z,98186.69
2022-11-17T08:14:10.717Z,98187.69
2022-11-17T08:16:38.020Z,98193.13
2022-11-17T08:19:06.256Z,98198.47
2022-11-17T08:21:36.729Z,98203.84
2022-11-17T08:24:03.850Z,98199.22
2022-11-17T08:26:31.169Z,98202.47
2022-11-17T08:28:59.098Z,98196.34
2022-11-17T08:31:26.484Z,98198.44
2022-11-17T08:33:53.451Z,98205.19
2022-11-17T08:36:20.735Z,98200.22
2022-11-17T08:38:47.741Z,98209.38
2022-11-17T08:41:15.086Z,98198.88
2022-11-17T08:43:44.256Z,98204.81
2022-11-17T08:46:13.005Z,98222.13
2022-11-17T08:48:40.506Z,98226.28
2022-11-17T08:51:09.252Z,98230.56
2022-11-17T08:53:36.352Z,98226.63
2022-11-17T08:56:08.425Z,98234.06
2022-11-17T08:58:43.722Z,98233.72
2022-11-17T09:01:12.828Z,98231.66
2022-11-17T09:03:42.783Z,98234.81
2022-11-17T09:06:10.566Z,98239.94
2022-11-17T09:08:45.539Z,98239.38
2022-11-17T09:11:14.614Z,98235.47
2022-11-17T09:13:42.371Z,98234.31
2022-11-17T09:16:11.572Z,98227.81
2022-11-17T09:18:41.142Z,98231.28
2022-11-17T09:21:11.202Z,98228.50
2022-11-17T09:23:40.959Z,98218.84
2022-11-17T09:26:13.273Z,98223.41
2022-11-17T09:28:44.272Z,98221.22
2022-11-17T09:31:14.504Z,98221.88
2022-11-17T09:33:42.639Z,98216.78
2022-11-17T09:36:11.594Z,98216.47
2022-11-17T09:38:39.669Z,98211.22
2022-11-17T09:41:20.985Z,98208.84
2022-11-17T09:44:12.496Z,98206.47
2022-11-17T09:47:00.010Z,98203.56
2022-11-17T09:49:33.117Z,98197.94
2022-11-17T09:52:27.689Z,98200.38
2022-11-17T09:55:33.895Z,98201.50
2022-11-17T09:58:33.854Z,98205.66
2022-11-17T10:01:03.242Z,98205.34
2022-11-17T10:03:42.091Z,98205.97
2022-11-17T10:06:27.490Z,98191.63
2022-11-17T10:09:17.793Z,98182.56
2022-11-17T10:11:48.301Z,98180.56
2022-11-17T10:14:18.654Z,98183.47
2022-11-17T10:16:57.818Z,98193.81
2022-11-17T10:19:27.938Z,98185.34
2022-11-17T10:22:02.807Z,98187.38
2022-11-17T10:24:50.627Z,98199.13
2022-11-17T10:27:17.597Z,98201.31
2022-11-17T10:30:30.379Z,98206.19
2022-11-17T10:33:00.062Z,98214.34
2022-11-17T10:35:33.949Z,98219.84
2022-11-17T10:38:02.794Z,98209.22
2022-11-17T10:40:32.938Z,98207.72
2022-11-17T10:43:12.216Z,98195.44
2022-11-17T10:45:45.385Z,98199.50
2022-11-17T10:48:31.117Z,98205.41
2022-11-17T10:50:59.985Z,98205.47
2022-11-17T10:53:30.061Z,98203.44
2022-11-17T10:56:02.491Z,98210.81
2022-11-17T10:58:32.182Z,98206.22
2022-11-17T11:01:02.727Z,98211.22
2022-11-17T11:03:36.420Z,98222.59
2022-11-17T11:06:26.874Z,98214.84
2022-11-17T11:09:16.286Z,98231.50
2022-11-17T11:11:46.671Z,98243.25
2022-11-17T11:14:42.375Z,98236.84
2022-11-17T11:17:13.083Z,98234.63
2022-11-17T11:19:43.235Z,98228.34
2022-11-17T11:22:32.189Z,98211.63
2022-11-17T11:25:38.079Z,98216.31
2022-11-17T11:28:19.435Z,98208.81
2022-11-17T11:31:25.304Z,98210.72
2022-11-17T11:34:27.570Z,98211.38
2022-11-17T11:37:00.031Z,98221.13
2022-11-17T11:39:42.432Z,98222.19
2022-11-17T11:42:32.182Z,98234.31
2022-11-17T11:45:24.735Z,98239.81
2022-11-17T11:47:51.691Z,98233.34
2022-11-17T11:50:27.187Z,98233.94
2022-11-17T11:53:11.437Z,98248.44
2022-11-17T11:55:41.478Z,98259.47
2022-11-17T11:58:24.931Z,98271.59
2022-11-17T12:01:06.066Z,98267.75
2022-11-17T12:04:01.763Z,98273.19
2022-11-17T12:07:01.254Z,98284.00
2022-11-17T12:09:49.320Z,98293.31
2022-11-17T12:12:26.934Z,98296.41
2022-11-17T12:15:20.344Z,98277.50
2022-11-17T12:18:13.292Z,98281.06
2022-11-17T12:20:43.303Z,98269.28
2022-11-17T12:23:29.490Z,98283.28
2022-11-17T12:25:58.952Z,98271.66
2022-11-17T12:28:29.354Z,98260.13
2022-11-17T12:31:08.253Z,98267.53
2022-11-17T12:33:52.511Z,98285.72
2022-11-17T12:36:31.230Z,98295.28
2022-11-17T12:39:04.155Z,98291.69
2022-11-17T12:41:49.657Z,98292.78
2022-11-17T12:44:46.007Z,98283.34
2022-11-17T12:47:18.343Z,98279.88
2022-11-17T12:50:19.968Z,98273.94
2022-11-17T12:53:12.214Z,98274.28
2022-11-17T12:55:48.673Z,98254.44
2022-11-17T12:58:24.927Z,98256.47
2022-11-17T13:01:27.986Z,98246.72
2022-11-17T13:03:59.525Z,98237.50
2022-11-17T13:06:35.976Z,98225.75
2022-11-17T13:09:12.806Z,98214.31
2022-11-17T13:11:40.121Z,98213.22
2022-11-17T13:14:16.113Z,98219.53
2022-11-17T13:16:53.210Z,98212.59
2022-11-17T13:19:37.327Z,98211.69
2022-11-17T13:22:13.921Z,98202.16
2022-11-17T13:24:49.062Z,98192.00
2022-11-17T13:27:23.028Z,98203.19
2022-11-17T13:29:51.408Z,98202.78
2022-11-17T13:32:24.854Z,98187.53
2022-11-17T13:34:57.806Z,98184.22
2022-11-17T13:37:29.906Z,98182.53
2022-11-17T13:40:19.913Z,98174.94
2022-11-17T13:42:47.877Z,98172.19
2022-11-17T13:45:15.942Z,98173.63
2022-11-17T13:47:48.773Z,98172.53
2022-11-17T13:50:29.487Z,98167.22
2022-11-17T13:52:58.651Z,98161.66
2022-11-17T13:55:27.254Z,98168.72
2022-11-17T13:58:05.793Z,98175.28
2022-11-17T14:00:34.022Z,98194.84
2022-11-17T14:03:06.402Z,98207.56
2022-11-17T14:05:33.916Z,98207.97
2022-11-17T14:08:27.274Z,98208.50
2022-11-17T14:11:12.637Z,98212.28
2022-11-17T14:14:01.550Z,98216.13
2022-11-17T14:16:38.218Z,98226.75
2022-11-17T14:19:26.166Z,98239.22
2022-11-17T14:22:09.479Z,98243.03
2022-11-17T14:24:40.927Z,98254.53
2022-11-17T14:27:37.345Z,98231.53
2022-11-17T14:30:05.484Z,98219.56
2022-11-17T14:32:35.040Z,98224.69
2022-11-17T14:35:02.400Z,98243.22
2022-11-17T14:37:32.268Z,98239.50
2022-11-17T14:40:00.779Z,98248.53
2022-11-17T14:42:32.866Z,98261.38
2022-11-17T14:45:02.191Z,98251.03
2022-11-17T14:47:31.575Z,98256.13
2022-11-17T14:49:59.145Z,98261.34
2022-11-17T14:52:26.173Z,98264.09
2022-11-17T14:54:55.987Z,98266.44
2022-11-17T14:57:22.966Z,98270.56
2022-11-17T14:59:50.262Z,98270.06
2022-11-17T15:02:17.328Z,98263.81
2022-11-17T15:04:50.542Z,98251.28
2022-11-17T15:07:18.363Z,98256.00
2022-11-17T15:09:45.713Z,98257.06
2022-11-17T15:12:12.703Z,98253.03
2022-11-17T15:14:40.068Z,98256.09
2022-11-17T15:17:13.934Z,98257.19
2022-11-17T15:19:42.010Z,98263.56
2022-11-17T15:22:09.057Z,98255.50
2022-11-17T15:24:36.365Z,98253.78
2022-11-17T15:27:03.664Z,98251.56
2022-11-17T15:29:30.945Z,98249.78
2022-11-17T15:31:57.941Z,98255.94
2022-11-17T15:34:25.404Z,98249.78
2022-11-17T15:36:54.651Z,98247.47
2022-11-17T15:39:22.069Z,98253.72
2022-11-17T15:41:50.559Z,98253.19
2022-11-17T15:44:21.162Z,98239.97
2022-11-17T15:46:48.329Z,98241.22
2022-11-17T15:49:16.296Z,98251.81
2022-11-17T15:51:43.519Z,98248.44
2022-11-17T15:54:16.665Z,98257.34
2022-11-17T15:56:50.997Z,98260.59
2022-11-17T15:59:18.863Z,98264.41
2022-11-17T16:01:49.207Z,98257.75
2022-11-17T16:04:17.273Z,98252.25
2022-11-17T16:06:46.068Z,98259.56
2022-11-17T16:09:14.649Z,98256.25
2022-11-17T16:11:42.116Z,98255.00
2022-11-17T16:14:09.674Z,98255.34
2022-11-17T16:16:38.416Z,98263.06
2022-11-17T16:19:06.510Z,98254.59
2022-11-17T16:21:34.012Z,98250.75
2022-11-17T16:24:02.374Z,98236.16
2022-11-17T16:26:30.015Z,98230.03
2022-11-17T16:28:58.350Z,98232.34
2022-11-17T16:31:30.582Z,98250.91
2022-11-17T16:34:08.249Z,98252.38
2022-11-17T16:36:38.889Z,98264.44
2022-11-17T16:39:08.522Z,98267.72
2022-11-17T16:41:40.150Z,98253.53
2022-11-17T16:44:12.104Z,98252.78
2022-11-17T16:46:42.359Z,98250.78
2022-11-17T16:49:12.893Z,98245.28
2022-11-17T16:51:43.591Z,98248.47
2022-11-17T16:54:12.640Z,98243.47
2022-11-17T16:56:41.017Z,98226.94
2022-11-17T16:59:11.490Z,98229.84
2022-11-17T17:01:39.986Z,98238.28
2022-11-17T17:04:11.172Z,98246.53
2022-11-17T17:06:43.381Z,98235.53
2022-11-17T17:09:13.024Z,98245.38
2022-11-17T17:11:41.161Z,98239.03
2022-11-17T17:14:12.448Z,98215.88
2022-11-17T17:16:40.155Z,98235.97
2022-11-17T17:19:09.617Z,98215.00
2022-11-17T17:21:39.476Z,98214.94
2022-11-17T17:24:08.157Z,98222.22
2022-11-17T17:26:37.161Z,98214.19
2022-11-17T17:29:05.920Z,98223.81
2022-11-17T17:31:36.038Z,98218.41
2022-11-17T17:34:06.430Z,98220.75
2022-11-17T17:36:35.326Z,98199.78
2022-11-17T17:39:03.917Z,98208.88
2022-11-17T17:41:34.543Z,98204.44
2022-11-17T17:44:04.293Z,98197.75
2022-11-17T17:46:35.800Z,98195.31
2022-11-17T17:49:03.880Z,98204.91
2022-11-17T17:51:31.502Z,98200.47
2022-11-17T17:54:02.218Z,98199.41
2022-11-17T17:56:30.946Z,98207.25
2022-11-17T17:58:59.489Z,98220.25
2022-11-17T18:01:29.512Z,98216.47
2022-11-17T18:04:01.814Z,98225.97
2022-11-17T18:06:29.492Z,98219.00
2022-11-17T18:08:58.831Z,98220.06
2022-11-17T18:11:29.681Z,98233.59
2022-11-17T18:13:57.922Z,98228.31
2022-11-17T18:16:27.866Z,98228.31
2022-11-17T18:18:59.589Z,98225.56
2022-11-17T18:21:30.025Z,98221.63
2022-11-17T18:24:00.793Z,98216.13
2022-11-17T18:26:30.491Z,98218.97
2022-11-17T18:29:07.213Z,98216.22
2022-11-17T18:31:37.553Z,98211.78
2022-11-17T18:34:09.587Z,98212.84
2022-11-17T18:36:40.121Z,98204.38
2022-11-17T18:39:08.470Z,98215.69
2022-11-17T18:41:37.408Z,98214.00
2022-11-17T18:44:05.941Z,98210.28
2022-11-17T18:46:34.552Z,98208.81
2022-11-17T18:49:05.214Z,98206.16
2022-11-17T18:51:35.001Z,98210.25
2022-11-17T18:54:05.009Z,98208.75
2022-11-17T18:56:34.796Z,98209.50
2022-11-17T18:59:23.636Z,98206.44
2022-11-17T19:01:51.310Z,98220.63
2022-11-17T19:04:22.142Z,98219.13
2022-11-17T19:06:54.944Z,98220.94
2022-11-17T19:09:30.050Z,98210.97
2022-11-17T19:11:59.043Z,98211.50
2022-11-17T19:14:29.156Z,98216.78
2022-11-17T19:16:57.198Z,98218.56
2022-11-17T19:19:27.288Z,98210.88
2022-11-17T19:21:55.946Z,98207.28
2022-11-17T19:24:24.226Z,98204.31
2022-11-17T19:26:56.431Z,98204.75
2022-11-17T19:29:26.822Z,98197.34
2022-11-17T19:31:55.121Z,98201.25
2022-11-17T19:34:25.975Z,98214.25
2022-11-17T19:36:56.174Z,98206.22
2022-11-17T19:39:24.689Z,98214.47
2022-11-17T19:41:53.948Z,98207.72
2022-11-17T19:44:21.941Z,98214.38
2022-11-17T19:46:50.125Z,98212.38
2022-11-17T19:49:18.517Z,98209.84
2022-11-17T19:51:46.609Z,98196.94
2022-11-17T19:54:16.809Z,98203.03
2022-11-17T19:56:44.720Z,98187.09
2022-11-17T19:59:16.907Z,98192.88
2022-11-17T20:01:46.497Z,98199.13
2022-11-17T20:04:14.981Z,98203.56
2022-11-17T20:06:42.581Z,98202.31
2022-11-17T20:09:13.751Z,98203.69
2022-11-17T20:11:42.626Z,98206.31
2022-11-17T20:14:11.289Z,98210.88
2022-11-17T20:16:39.425Z,98213.59
2022-11-17T20:19:07.843Z,98204.63
2022-11-17T20:21:35.479Z,98216.34
2022-11-17T20:24:05.729Z,98218.06
2022-11-17T20:26:36.280Z,98220.78
2022-11-17T20:29:05.235Z,98210.03
2022-11-17T20:31:36.791Z,98218.72
2022-11-17T20:34:05.927Z,98219.97
2022-11-17T20:36:35.813Z,98222.72
2022-11-17T20:39:06.727Z,98232.44
2022-11-17T20:41:35.216Z,98224.28
2022-11-17T20:44:05.566Z,98231.47
2022-11-17T20:46:34.569Z,98226.81
2022-11-17T20:49:02.745Z,98225.00
2022-11-17T20:51:31.086Z,98239.72
2022-11-17T20:53:58.723Z,98226.28
2022-11-17T20:56:26.301Z,98226.50
2022-11-17T20:58:56.422Z,98209.81
2022-11-17T21:01:25.460Z,98208.34
2022-11-17T21:03:55.740Z,98201.66
2022-11-17T21:06:23.801Z,98207.81
2022-11-17T21:08:51.910Z,98212.34
2022-11-17T21:11:39.542Z,98212.34
2022-11-17T21:14:12.470Z,98212.34
2022-11-17T21:16:46.695Z,98210.88
2022-11-17T21:19:14.659Z,98212.34
2022-11-17T21:21:42.947Z,98205.59
2022-11-17T21:24:11.337Z,98206.31
2022-11-17T21:26:38.499Z,98205.69
2022-11-17T21:29:08.610Z,98204.88
2022-11-17T21:31:35.884Z,98207.41
2022-11-17T21:34:06.071Z,98209.94
2022-11-17T21:36:34.849Z,98200.66
2022-11-17T21:39:02.880Z,98208.13
2022-11-17T21:41:35.559Z,98197.16
2022-11-17T21:44:03.726Z,98204.38
2022-11-17T21:46:33.275Z,98201.41
2022-11-17T21:49:01.430Z,98197.91
2022-11-17T21:51:34.302Z,98194.09
2022-11-17T21:54:03.537Z,98201.09
2022-11-17T21:56:32.148Z,98209.03
2022-11-17T21:59:01.896Z,98202.25
2022-11-17T22:01:29.490Z,98202.78
2022-11-17T22:03:57.206Z,98209.44
2022-11-17T22:06:25.690Z,98208.19
2022-11-17T22:08:57.758Z,98204.16
2022-11-17T22:11:37.338Z,98199.84
2022-11-17T22:14:12.627Z,98200.88
2022-11-17T22:16:42.131Z,98194.13
2022-11-17T22:19:10.770Z,98183.88
2022-11-17T22:21:38.591Z,98175.13
2022-11-17T22:24:07.652Z,98181.34
2022-11-17T22:26:38.481Z,98199.84
2022-11-17T22:29:08.096Z,98188.41
2022-11-17T22:31:35.371Z,98182.63
2022-11-17T22:34:09.972Z,98201.63
2022-11-17T22:36:40.661Z,98202.69
2022-11-17T22:39:09.507Z,98198.88
2022-11-17T22:41:36.624Z,98199.09
2022-11-17T22:44:04.721Z,98193.38
2022-11-17T22:46:31.965Z,98195.06
2022-11-17T22:49:01.561Z,98185.38
2022-11-17T22:51:47.152Z,98189.34
2022-11-17T22:54:14.492Z,98183.88
2022-11-17T22:56:41.512Z,98181.56
2022-11-17T22:59:09.178Z,98181.13
2022-11-17T23:01:38.874Z,98175.84
2022-11-17T23:04:06.651Z,98171.31
2022-11-17T23:06:33.731Z,98168.03
2022-11-17T23:09:03.424Z,98163.81
2022-11-17T23:11:36.950Z,98160.31
2022-11-17T23:14:06.196Z,98160.84
2022-11-17T23:16:33.313Z,98164.84
2022-11-17T23:19:00.849Z,98162.63
2022-11-17T23:21:27.821Z,98168.34
2022-11-17T23:23:55.376Z,98165.59
2022-11-17T23:26:22.610Z,98166.75
2022-11-17T23:28:52.873Z,98155.97
2022-11-17T23:31:20.494Z,98163.50
2022-11-17T23:33:50.383Z,98155.97
2022-11-17T23:36:22.238Z,98157.25
2022-11-17T23:38:51.167Z,98161.69
2022-11-17T23:41:20.704Z,98157.47
2022-11-17T23:43:53.118Z,98156.94
2022-11-17T23:46:22.448Z,98158.41
2022-11-17T23:48:50.287Z,98156.19
2022-11-17T23:51:22.677Z,98149.22
2022-11-17T23:53:50.204Z,98150.16
2022-11-17T23:56:19.568Z,98143.94
2022-11-17T23:58:47.030Z,98140.22
